sensor_id;sensor_type;location;lat;lon;timestamp;P1;durP1;ratioP1;P2;durP2;ratioP2
66093;SDS011;52876;49.394;10.892;2022-09-17T00:01:31;2.03;;;1.30;;
66093;SDS011;52876;49.394;10.892;2022-09-17T00:03:57;1.93;;;1.30;;
66093;SDS011;52876;49.394;10.892;2022-09-17T00:06:26;2.43;;;1.50;;
66093;SDS011;52876;49.394;10.892;2022-09-17T00:08:53;2.77;;;1.43;;
66093;SDS011;52876;49.394;10.892;2022-09-17T00:11:21;1.50;;;1.40;;
66093;SDS011;52876;49.394;10.892;2022-09-17T00:13:49;1.50;;;1.40;;
66093;SDS011;52876;49.394;10.892;2022-09-17T00:18:57;2.50;;;1.70;;
66093;SDS011;52876;49.394;10.892;2022-09-17T00:21:24;2.23;;;1.70;;
66093;SDS011;52876;49.394;10.892;2022-09-17T00:23:54;1.87;;;1.30;;
66093;SDS011;52876;49.394;10.892;2022-09-17T00:26:23;3.33;;;1.77;;
66093;SDS011;52876;49.394;10.892;2022-09-17T00:28:50;2.13;;;1.37;;
66093;SDS011;52876;49.394;10.892;2022-09-17T00:31:18;2.40;;;1.43;;
66093;SDS011;52876;49.394;10.892;2022-09-17T00:33:44;1.50;;;1.30;;
66093;SDS011;52876;49.394;10.892;2022-09-17T00:36:13;1.60;;;1.50;;
66093;SDS011;52876;49.394;10.892;2022-09-17T00:38:39;1.90;;;1.67;;
66093;SDS011;52876;49.394;10.892;2022-09-17T00:41:06;3.20;;;1.30;;
66093;SDS011;52876;49.394;10.892;2022-09-17T00:43:36;1.50;;;1.37;;
66093;SDS011;52876;49.394;10.892;2022-09-17T00:46:14;2.33;;;1.60;;
66093;SDS011;52876;49.394;10.892;2022-09-17T00:48:48;1.90;;;1.70;;
66093;SDS011;52876;49.394;10.892;2022-09-17T00:51:19;2.50;;;1.63;;
66093;SDS011;52876;49.394;10.892;2022-09-17T00:53:47;2.63;;;1.90;;
66093;SDS011;52876;49.394;10.892;2022-09-17T00:56:15;3.10;;;2.03;;
66093;SDS011;52876;49.394;10.892;2022-09-17T00:58:46;1.60;;;1.50;;
66093;SDS011;52876;49.394;10.892;2022-09-17T01:01:13;4.73;;;2.27;;
66093;SDS011;52876;49.394;10.892;2022-09-17T01:03:40;3.03;;;2.73;;
66093;SDS011;52876;49.394;10.892;2022-09-17T01:06:11;3.07;;;2.77;;
66093;SDS011;52876;49.394;10.892;2022-09-17T01:08:44;3.23;;;2.93;;
66093;SDS011;52876;49.394;10.892;2022-09-17T01:11:23;3.60;;;2.63;;
66093;SDS011;52876;49.394;10.892;2022-09-17T01:14:13;4.17;;;2.83;;
66093;SDS011;52876;49.394;10.892;2022-09-17T01:16:50;3.50;;;3.20;;
66093;SDS011;52876;49.394;10.892;2022-09-17T01:19:40;9.10;;;3.10;;
66093;SDS011;52876;49.394;10.892;2022-09-17T01:22:32;6.57;;;4.63;;
66093;SDS011;52876;49.394;10.892;2022-09-17T01:25:13;5.63;;;4.20;;
66093;SDS011;52876;49.394;10.892;2022-09-17T01:27:54;6.07;;;3.80;;
66093;SDS011;52876;49.394;10.892;2022-09-17T01:30:39;6.17;;;4.17;;
66093;SDS011;52876;49.394;10.892;2022-09-17T01:33:28;3.90;;;3.50;;
66093;SDS011;52876;49.394;10.892;2022-09-17T01:36:05;6.67;;;3.40;;
66093;SDS011;52876;49.394;10.892;2022-09-17T01:38:43;3.90;;;3.40;;
66093;SDS011;52876;49.394;10.892;2022-09-17T01:41:20;4.07;;;3.03;;
66093;SDS011;52876;49.394;10.892;2022-09-17T01:43:54;4.60;;;3.90;;
66093;SDS011;52876;49.394;10.892;2022-09-17T01:46:29;3.37;;;3.07;;
66093;SDS011;52876;49.394;10.892;2022-09-17T01:48:57;4.80;;;3.50;;
66093;SDS011;52876;49.394;10.892;2022-09-17T01:51:27;5.43;;;3.70;;
66093;SDS011;52876;49.394;10.892;2022-09-17T08:04:52;4.73;;;3.90;;
66093;SDS011;52876;49.394;10.892;2022-09-17T08:07:18;7.63;;;4.80;;
66093;SDS011;52876;49.394;10.892;2022-09-17T08:09:45;6.03;;;4.33;;
66093;SDS011;52876;49.394;10.892;2022-09-17T08:12:12;5.50;;;4.33;;
66093;SDS011;52876;49.394;10.892;2022-09-17T08:14:39;5.63;;;3.87;;
66093;SDS011;52876;49.394;10.892;2022-09-17T08:17:06;4.97;;;3.43;;
66093;SDS011;52876;49.394;10.892;2022-09-17T08:19:32;4.53;;;4.03;;
66093;SDS011;52876;49.394;10.892;2022-09-17T08:22:01;5.90;;;3.87;;
66093;SDS011;52876;49.394;10.892;2022-09-17T08:24:28;6.50;;;4.60;;
66093;SDS011;52876;49.394;10.892;2022-09-17T08:26:54;4.43;;;4.10;;
66093;SDS011;52876;49.394;10.892;2022-09-17T08:29:20;8.07;;;4.70;;
66093;SDS011;52876;49.394;10.892;2022-09-17T08:31:47;4.87;;;4.57;;
66093;SDS011;52876;49.394;10.892;2022-09-17T08:34:14;4.30;;;3.90;;
66093;SDS011;52876;49.394;10.892;2022-09-17T08:36:41;7.03;;;4.50;;
66093;SDS011;52876;49.394;10.892;2022-09-17T08:39:09;5.17;;;4.67;;
66093;SDS011;52876;49.394;10.892;2022-09-17T08:41:48;5.37;;;4.70;;
66093;SDS011;52876;49.394;10.892;2022-09-17T08:44:21;4.83;;;4.23;;
66093;SDS011;52876;49.394;10.892;2022-09-17T08:46:51;5.40;;;4.13;;
66093;SDS011;52876;49.394;10.892;2022-09-17T08:49:24;5.20;;;4.07;;
66093;SDS011;52876;49.394;10.892;2022-09-17T08:55:01;9.33;;;4.63;;
66093;SDS011;52876;49.394;10.892;2022-09-17T08:57:40;5.00;;;4.60;;
66093;SDS011;52876;49.394;10.892;2022-09-17T09:00:11;6.00;;;5.10;;
66093;SDS011;52876;49.394;10.892;2022-09-17T09:02:48;4.93;;;4.10;;
66093;SDS011;52876;49.394;10.892;2022-09-17T09:05:29;6.83;;;4.27;;
66093;SDS011;52876;49.394;10.892;2022-09-17T09:08:04;7.63;;;5.50;;
66093;SDS011;52876;49.394;10.892;2022-09-17T09:10:41;5.17;;;4.13;;
66093;SDS011;52876;49.394;10.892;2022-09-17T09:13:14;5.30;;;3.90;;
66093;SDS011;52876;49.394;10.892;2022-09-17T09:15:42;7.47;;;4.50;;
66093;SDS011;52876;49.394;10.892;2022-09-17T09:18:15;9.73;;;3.40;;
66093;SDS011;52876;49.394;10.892;2022-09-17T09:20:47;5.93;;;3.20;;
66093;SDS011;52876;49.394;10.892;2022-09-17T09:23:16;4.83;;;4.00;;
66093;SDS011;52876;49.394;10.892;2022-09-17T09:25:52;4.47;;;3.53;;
66093;SDS011;52876;49.394;10.892;2022-09-17T09:28:37;6.77;;;3.93;;
66093;SDS011;52876;49.394;10.892;2022-09-17T09:34:03;6.30;;;4.10;;
66093;SDS011;52876;49.394;10.892;2022-09-17T09:36:31;5.93;;;4.67;;
66093;SDS011;52876;49.394;10.892;2022-09-17T09:38:58;7.50;;;4.60;;
66093;SDS011;52876;49.394;10.892;2022-09-17T09:41:30;9.67;;;4.37;;
66093;SDS011;52876;49.394;10.892;2022-09-17T09:44:00;8.00;;;4.10;;
66093;SDS011;52876;49.394;10.892;2022-09-17T09:49:30;10.07;;;4.30;;
66093;SDS011;52876;49.394;10.892;2022-09-17T09:52:11;6.67;;;4.93;;
66093;SDS011;52876;49.394;10.892;2022-09-17T09:54:49;4.73;;;3.70;;
66093;SDS011;52876;49.394;10.892;2022-09-17T09:57:31;5.50;;;3.93;;
66093;SDS011;52876;49.394;10.892;2022-09-17T10:00:24;7.47;;;3.40;;
66093;SDS011;52876;49.394;10.892;2022-09-17T10:02:52;6.90;;;3.90;;
66093;SDS011;52876;49.394;10.892;2022-09-17T10:05:24;6.17;;;4.07;;
66093;SDS011;52876;49.394;10.892;2022-09-17T10:07:51;5.03;;;3.10;;
66093;SDS011;52876;49.394;10.892;2022-09-17T10:10:19;9.20;;;3.67;;
66093;SDS011;52876;49.394;10.892;2022-09-17T10:12:48;4.80;;;3.77;;
66093;SDS011;52876;49.394;10.892;2022-09-17T10:15:30;6.13;;;3.87;;
66093;SDS011;52876;49.394;10.892;2022-09-17T10:18:10;7.23;;;3.57;;
66093;SDS011;52876;49.394;10.892;2022-09-17T10:20:47;4.37;;;3.20;;
66093;SDS011;52876;49.394;10.892;2022-09-17T10:23:15;6.43;;;3.47;;
66093;SDS011;52876;49.394;10.892;2022-09-17T10:25:41;5.80;;;3.67;;
66093;SDS011;52876;49.394;10.892;2022-09-17T10:28:16;4.07;;;3.67;;
66093;SDS011;52876;49.394;10.892;2022-09-17T10:30:58;4.63;;;4.23;;
66093;SDS011;52876;49.394;10.892;2022-09-17T10:33:26;7.03;;;3.73;;
66093;SDS011;52876;49.394;10.892;2022-09-17T10:36:00;7.20;;;4.93;;
66093;SDS011;52876;49.394;10.892;2022-09-17T10:38:29;4.10;;;3.30;;
66093;SDS011;52876;49.394;10.892;2022-09-17T10:41:08;9.17;;;3.80;;
66093;SDS011;52876;49.394;10.892;2022-09-17T10:43:35;3.80;;;3.50;;
66093;SDS011;52876;49.394;10.892;2022-09-17T10:46:04;7.53;;;3.57;;
66093;SDS011;52876;49.394;10.892;2022-09-17T10:48:36;6.20;;;3.20;;
66093;SDS011;52876;49.394;10.892;2022-09-17T10:51:07;5.43;;;3.40;;
66093;SDS011;52876;49.394;10.892;2022-09-17T10:53:36;5.60;;;3.83;;
66093;SDS011;52876;49.394;10.892;2022-09-17T10:56:34;6.23;;;4.23;;
66093;SDS011;52876;49.394;10.892;2022-09-17T10:59:11;4.53;;;4.20;;
66093;SDS011;52876;49.394;10.892;2022-09-17T11:01:56;4.20;;;3.77;;
66093;SDS011;52876;49.394;10.892;2022-09-17T11:04:40;3.83;;;2.83;;
66093;SDS011;52876;49.394;10.892;2022-09-17T11:07:27;4.37;;;3.63;;
66093;SDS011;52876;49.394;10.892;2022-09-17T11:10:01;3.30;;;3.00;;
66093;SDS011;52876;49.394;10.892;2022-09-17T11:12:38;3.40;;;3.07;;
66093;SDS011;52876;49.394;10.892;2022-09-17T11:15:17;3.27;;;3.00;;
66093;SDS011;52876;49.394;10.892;2022-09-17T11:20:57;2.93;;;2.57;;
66093;SDS011;52876;49.394;10.892;2022-09-17T11:23:44;3.23;;;2.93;;
66093;SDS011;52876;49.394;10.892;2022-09-17T11:26:26;6.87;;;3.23;;
66093;SDS011;52876;49.394;10.892;2022-09-17T11:28:59;7.30;;;4.00;;
66093;SDS011;52876;49.394;10.892;2022-09-17T11:31:35;7.23;;;3.77;;
66093;SDS011;52876;49.394;10.892;2022-09-17T11:34:22;5.83;;;3.10;;
66093;SDS011;52876;49.394;10.892;2022-09-17T11:36:58;5.00;;;3.03;;
66093;SDS011;52876;49.394;10.892;2022-09-17T11:39:31;3.53;;;2.80;;
66093;SDS011;52876;49.394;10.892;2022-09-17T11:42:02;4.70;;;3.07;;
66093;SDS011;52876;49.394;10.892;2022-09-17T11:44:35;3.23;;;2.90;;
66093;SDS011;52876;49.394;10.892;2022-09-17T11:47:12;5.07;;;3.00;;
66093;SDS011;52876;49.394;10.892;2022-09-17T11:49:48;4.47;;;3.10;;
66093;SDS011;52876;49.394;10.892;2022-09-17T11:52:18;3.87;;;3.47;;
66093;SDS011;52876;49.394;10.892;2022-09-17T11:54:49;5.50;;;4.50;;
66093;SDS011;52876;49.394;10.892;2022-09-17T11:57:20;5.27;;;4.10;;
66093;SDS011;52876;49.394;10.892;2022-09-17T11:59:51;3.37;;;2.00;;
66093;SDS011;52876;49.394;10.892;2022-09-17T12:02:24;2.40;;;2.20;;
66093;SDS011;52876;49.394;10.892;2022-09-17T12:05:00;5.30;;;1.80;;
66093;SDS011;52876;49.394;10.892;2022-09-17T12:07:33;3.53;;;1.70;;
66093;SDS011;52876;49.394;10.892;2022-09-17T12:10:10;2.13;;;1.80;;
66093;SDS011;52876;49.394;10.892;2022-09-17T12:12:47;1.97;;;1.50;;
66093;SDS011;52876;49.394;10.892;2022-09-17T12:15:21;1.97;;;1.50;;
66093;SDS011;52876;49.394;10.892;2022-09-17T12:17:51;3.30;;;1.50;;
66093;SDS011;52876;49.394;10.892;2022-09-17T12:20:25;2.67;;;1.87;;
66093;SDS011;52876;49.394;10.892;2022-09-17T12:22:57;2.07;;;1.87;;
66093;SDS011;52876;49.394;10.892;2022-09-17T12:25:31;1.87;;;1.77;;
66093;SDS011;52876;49.394;10.892;2022-09-17T12:28:03;2.63;;;1.97;;
66093;SDS011;52876;49.394;10.892;2022-09-17T12:30:35;2.60;;;2.40;;
66093;SDS011;52876;49.394;10.892;2022-09-17T12:36:01;4.47;;;2.27;;
66093;SDS011;52876;49.394;10.892;2022-09-17T12:38:56;2.17;;;1.97;;
66093;SDS011;52876;49.394;10.892;2022-09-17T12:41:45;3.30;;;2.47;;
66093;SDS011;52876;49.394;10.892;2022-09-17T12:44:24;3.57;;;2.00;;
66093;SDS011;52876;49.394;10.892;2022-09-17T12:47:14;2.80;;;2.33;;
66093;SDS011;52876;49.394;10.892;2022-09-17T12:49:56;2.57;;;2.23;;
66093;SDS011;52876;49.394;10.892;2022-09-17T12:52:38;3.47;;;2.07;;
66093;SDS011;52876;49.394;10.892;2022-09-17T12:55:19;3.73;;;2.53;;
66093;SDS011;52876;49.394;10.892;2022-09-17T12:57:51;3.93;;;2.90;;
66093;SDS011;52876;49.394;10.892;2022-09-17T13:00:23;3.30;;;2.33;;
66093;SDS011;52876;49.394;10.892;2022-09-17T13:02:50;12.30;;;3.03;;
66093;SDS011;52876;49.394;10.892;2022-09-17T13:08:34;2.60;;;2.40;;
66093;SDS011;52876;49.394;10.892;2022-09-17T13:14:28;2.97;;;2.67;;
66093;SDS011;52876;49.394;10.892;2022-09-17T13:16:59;6.77;;;2.80;;
66093;SDS011;52876;49.394;10.892;2022-09-17T13:19:32;4.07;;;2.40;;
66093;SDS011;52876;49.394;10.892;2022-09-17T13:22:05;5.40;;;2.40;;
66093;SDS011;52876;49.394;10.892;2022-09-17T13:24:35;3.07;;;2.13;;
66093;SDS011;52876;49.394;10.892;2022-09-17T13:27:03;2.73;;;2.43;;
66093;SDS011;52876;49.394;10.892;2022-09-17T13:32:44;3.33;;;2.40;;
66093;SDS011;52876;49.394;10.892;2022-09-17T13:38:11;2.43;;;2.20;;
66093;SDS011;52876;49.394;10.892;2022-09-17T13:40:39;6.63;;;3.30;;
66093;SDS011;52876;49.394;10.892;2022-09-17T13:43:06;1.83;;;1.53;;
66093;SDS011;52876;49.394;10.892;2022-09-17T13:48:33;1.93;;;1.83;;
66093;SDS011;52876;49.394;10.892;2022-09-17T13:51:05;1.80;;;1.50;;
66093;SDS011;52876;49.394;10.892;2022-09-17T13:54:12;2.60;;;1.50;;
66093;SDS011;52876;49.394;10.892;2022-09-17T13:56:42;4.23;;;1.60;;
66093;SDS011;52876;49.394;10.892;2022-09-17T13:59:11;2.27;;;1.40;;
66093;SDS011;52876;49.394;10.892;2022-09-17T14:08:08;2.43;;;2.23;;
66093;SDS011;52876;49.394;10.892;2022-09-17T14:10:39;1.90;;;1.80;;
66093;SDS011;52876;49.394;10.892;2022-09-17T14:16:25;3.70;;;2.60;;
66093;SDS011;52876;49.394;10.892;2022-09-17T14:19:00;3.03;;;2.50;;
66093;SDS011;52876;49.394;10.892;2022-09-17T14:21:44;3.03;;;2.27;;
66093;SDS011;52876;49.394;10.892;2022-09-17T14:24:21;3.00;;;2.10;;
66093;SDS011;52876;49.394;10.892;2022-09-17T14:26:58;2.70;;;2.50;;
66093;SDS011;52876;49.394;10.892;2022-09-17T14:29:42;5.00;;;2.60;;
66093;SDS011;52876;49.394;10.892;2022-09-17T14:32:37;5.60;;;3.43;;
66093;SDS011;52876;49.394;10.892;2022-09-17T14:35:13;2.90;;;2.67;;
66093;SDS011;52876;49.394;10.892;2022-09-17T14:37:43;2.57;;;2.10;;
66093;SDS011;52876;49.394;10.892;2022-09-17T14:40:14;3.63;;;2.40;;
66093;SDS011;52876;49.394;10.892;2022-09-17T14:42:46;3.57;;;2.50;;
66093;SDS011;52876;49.394;10.892;2022-09-17T14:45:18;6.90;;;2.47;;
66093;SDS011;52876;49.394;10.892;2022-09-17T14:47:48;2.30;;;2.10;;
66093;SDS011;52876;49.394;10.892;2022-09-17T14:50:21;2.40;;;2.20;;
66093;SDS011;52876;49.394;10.892;2022-09-17T14:52:49;3.80;;;3.10;;
66093;SDS011;52876;49.394;10.892;2022-09-17T14:55:17;7.20;;;5.00;;
66093;SDS011;52876;49.394;10.892;2022-09-17T14:57:48;5.60;;;3.13;;
66093;SDS011;52876;49.394;10.892;2022-09-17T15:00:18;5.00;;;3.10;;
66093;SDS011;52876;49.394;10.892;2022-09-17T15:02:52;3.60;;;3.03;;
66093;SDS011;52876;49.394;10.892;2022-09-17T15:05:20;4.30;;;2.00;;
66093;SDS011;52876;49.394;10.892;2022-09-17T15:07:49;1.90;;;1.70;;
66093;SDS011;52876;49.394;10.892;2022-09-17T15:10:17;2.73;;;1.90;;
66093;SDS011;52876;49.394;10.892;2022-09-17T15:12:46;2.30;;;2.10;;
66093;SDS011;52876;49.394;10.892;2022-09-17T15:15:15;2.47;;;1.90;;
66093;SDS011;52876;49.394;10.892;2022-09-17T15:17:46;5.83;;;4.33;;
66093;SDS011;52876;49.394;10.892;2022-09-17T15:20:15;18.67;;;10.80;;
66093;SDS011;52876;49.394;10.892;2022-09-17T15:22:44;6.23;;;5.00;;
66093;SDS011;52876;49.394;10.892;2022-09-17T15:25:15;2.87;;;2.60;;
66093;SDS011;52876;49.394;10.892;2022-09-17T15:27:46;2.63;;;2.00;;
66093;SDS011;52876;49.394;10.892;2022-09-17T15:30:13;4.30;;;2.17;;
66093;SDS011;52876;49.394;10.892;2022-09-17T15:32:47;5.30;;;3.53;;
66093;SDS011;52876;49.394;10.892;2022-09-17T15:35:19;2.00;;;1.77;;
66093;SDS011;52876;49.394;10.892;2022-09-17T15:37:48;3.30;;;2.40;;
66093;SDS011;52876;49.394;10.892;2022-09-17T15:40:22;3.20;;;2.03;;
66093;SDS011;52876;49.394;10.892;2022-09-17T15:42:51;3.13;;;1.80;;
66093;SDS011;52876;49.394;10.892;2022-09-17T15:45:21;4.80;;;2.17;;
66093;SDS011;52876;49.394;10.892;2022-09-17T15:47:54;3.90;;;1.97;;
66093;SDS011;52876;49.394;10.892;2022-09-17T15:50:22;2.77;;;1.60;;
66093;SDS011;52876;49.394;10.892;2022-09-17T15:52:49;2.60;;;2.00;;
66093;SDS011;52876;49.394;10.892;2022-09-17T15:55:27;3.27;;;1.83;;
66093;SDS011;52876;49.394;10.892;2022-09-17T15:57:55;2.00;;;1.80;;
66093;SDS011;52876;49.394;10.892;2022-09-17T16:00:24;1.57;;;1.47;;
66093;SDS011;52876;49.394;10.892;2022-09-17T16:02:50;3.10;;;1.80;;
66093;SDS011;52876;49.394;10.892;2022-09-17T16:08:15;2.77;;;1.77;;
66093;SDS011;52876;49.394;10.892;2022-09-17T16:10:43;2.00;;;1.40;;
66093;SDS011;52876;49.394;10.892;2022-09-17T16:13:09;3.53;;;1.43;;
66093;SDS011;52876;49.394;10.892;2022-09-17T16:15:36;3.17;;;1.83;;
66093;SDS011;52876;49.394;10.892;2022-09-17T16:18:04;3.90;;;3.23;;
66093;SDS011;52876;49.394;10.892;2022-09-17T16:20:30;4.23;;;2.63;;
66093;SDS011;52876;49.394;10.892;2022-09-17T16:22:58;2.47;;;1.80;;
66093;SDS011;52876;49.394;10.892;2022-09-17T16:25:26;2.43;;;1.40;;
66093;SDS011;52876;49.394;10.892;2022-09-17T16:27:55;1.87;;;1.50;;
66093;SDS011;52876;49.394;10.892;2022-09-17T16:30:26;2.40;;;2.20;;
66093;SDS011;52876;49.394;10.892;2022-09-17T16:32:52;6.67;;;1.80;;
66093;SDS011;52876;49.394;10.892;2022-09-17T16:35:19;2.93;;;2.20;;
66093;SDS011;52876;49.394;10.892;2022-09-17T16:37:50;4.10;;;2.70;;
66093;SDS011;52876;49.394;10.892;2022-09-17T16:40:19;4.83;;;2.00;;
66093;SDS011;52876;49.394;10.892;2022-09-17T16:42:47;4.60;;;1.87;;
66093;SDS011;52876;49.394;10.892;2022-09-17T16:45:13;1.67;;;1.57;;
66093;SDS011;52876;49.394;10.892;2022-09-17T16:47:41;3.23;;;1.70;;
66093;SDS011;52876;49.394;10.892;2022-09-17T16:50:09;2.60;;;1.43;;
66093;SDS011;52876;49.394;10.892;2022-09-17T16:52:37;3.20;;;1.93;;
66093;SDS011;52876;49.394;10.892;2022-09-17T16:55:04;3.77;;;2.30;;
66093;SDS011;52876;49.394;10.892;2022-09-17T16:57:35;3.10;;;1.93;;
66093;SDS011;52876;49.394;10.892;2022-09-17T17:00:02;2.60;;;2.13;;
66093;SDS011;52876;49.394;10.892;2022-09-17T17:02:32;8.17;;;3.10;;
66093;SDS011;52876;49.394;10.892;2022-09-17T17:04:59;5.67;;;3.60;;
66093;SDS011;52876;49.394;10.892;2022-09-17T17:07:27;4.43;;;2.60;;
66093;SDS011;52876;49.394;10.892;2022-09-17T17:09:54;3.07;;;2.10;;
66093;SDS011;52876;49.394;10.892;2022-09-17T17:12:21;5.53;;;2.00;;
66093;SDS011;52876;49.394;10.892;2022-09-17T17:14:49;2.00;;;1.07;;
66093;SDS011;52876;49.394;10.892;2022-09-17T17:17:16;3.40;;;1.97;;
66093;SDS011;52876;49.394;10.892;2022-09-17T17:19:43;3.00;;;2.23;;
66093;SDS011;52876;49.394;10.892;2022-09-17T17:22:11;4.70;;;2.67;;
66093;SDS011;52876;49.394;10.892;2022-09-17T17:24:37;4.07;;;3.47;;
66093;SDS011;52876;49.394;10.892;2022-09-17T17:27:06;2.33;;;2.13;;
66093;SDS011;52876;49.394;10.892;2022-09-17T17:29:32;2.77;;;2.57;;
66093;SDS011;52876;49.394;10.892;2022-09-17T17:31:59;1.80;;;1.70;;
66093;SDS011;52876;49.394;10.892;2022-09-17T17:34:26;3.20;;;2.90;;
66093;SDS011;52876;49.394;10.892;2022-09-17T17:36:52;3.43;;;2.20;;
66093;SDS011;52876;49.394;10.892;2022-09-17T17:39:18;4.33;;;3.93;;
66093;SDS011;52876;49.394;10.892;2022-09-17T17:41:45;4.13;;;3.83;;
66093;SDS011;52876;49.394;10.892;2022-09-17T17:44:11;4.97;;;4.57;;
66093;SDS011;52876;49.394;10.892;2022-09-17T17:46:38;1.97;;;1.87;;
66093;SDS011;52876;49.394;10.892;2022-09-17T17:49:06;3.10;;;2.80;;
66093;SDS011;52876;49.394;10.892;2022-09-17T17:51:32;2.90;;;2.60;;
66093;SDS011;52876;49.394;10.892;2022-09-17T17:53:59;2.43;;;2.03;;
66093;SDS011;52876;49.394;10.892;2022-09-17T17:56:28;2.50;;;1.73;;
66093;SDS011;52876;49.394;10.892;2022-09-17T17:58:55;1.40;;;1.30;;
66093;SDS011;52876;49.394;10.892;2022-09-17T18:01:24;2.03;;;1.83;;
66093;SDS011;52876;49.394;10.892;2022-09-17T18:03:54;2.50;;;1.90;;
66093;SDS011;52876;49.394;10.892;2022-09-17T18:06:23;6.50;;;2.50;;
66093;SDS011;52876;49.394;10.892;2022-09-17T18:08:50;2.90;;;2.20;;
66093;SDS011;52876;49.394;10.892;2022-09-17T18:11:18;4.80;;;2.37;;
66093;SDS011;52876;49.394;10.892;2022-09-17T18:13:44;3.70;;;2.97;;
66093;SDS011;52876;49.394;10.892;2022-09-17T18:16:12;3.70;;;2.30;;
66093;SDS011;52876;49.394;10.892;2022-09-17T18:18:39;2.67;;;2.17;;
66093;SDS011;52876;49.394;10.892;2022-09-17T18:21:07;3.30;;;1.93;;
66093;SDS011;52876;49.394;10.892;2022-09-17T18:23:37;3.43;;;2.20;;
66093;SDS011;52876;49.394;10.892;2022-09-17T18:26:05;2.03;;;1.93;;
66093;SDS011;52876;49.394;10.892;2022-09-17T18:28:34;4.70;;;2.47;;
66093;SDS011;52876;49.394;10.892;2022-09-17T18:31:02;4.17;;;2.03;;
66093;SDS011;52876;49.394;10.892;2022-09-17T18:33:29;2.23;;;2.13;;
66093;SDS011;52876;49.394;10.892;2022-09-17T18:35:59;2.63;;;2.00;;
66093;SDS011;52876;49.394;10.892;2022-09-17T18:38:27;4.13;;;1.90;;
66093;SDS011;52876;49.394;10.892;2022-09-17T18:40:55;3.00;;;1.87;;
66093;SDS011;52876;49.394;10.892;2022-09-17T18:43:26;2.60;;;1.80;;
66093;SDS011;52876;49.394;10.892;2022-09-17T18:45:53;3.30;;;1.80;;
66093;SDS011;52876;49.394;10.892;2022-09-17T18:48:22;2.13;;;1.67;;
66093;SDS011;52876;49.394;10.892;2022-09-17T18:50:55;3.20;;;1.60;;
66093;SDS011;52876;49.394;10.892;2022-09-17T18:53:22;2.47;;;1.80;;
66093;SDS011;52876;49.394;10.892;2022-09-17T18:55:51;2.90;;;1.70;;
66093;SDS011;52876;49.394;10.892;2022-09-17T18:58:19;1.70;;;1.60;;
66093;SDS011;52876;49.394;10.892;2022-09-17T19:00:46;2.37;;;2.17;;
66093;SDS011;52876;49.394;10.892;2022-09-17T19:03:13;1.60;;;1.50;;
66093;SDS011;52876;49.394;10.892;2022-09-17T19:05:40;1.83;;;1.50;;
66093;SDS011;52876;49.394;10.892;2022-09-17T19:08:07;2.63;;;1.47;;
66093;SDS011;52876;49.394;10.892;2022-09-17T19:10:33;1.90;;;1.77;;
66093;SDS011;52876;49.394;10.892;2022-09-17T19:13:00;3.60;;;3.10;;
66093;SDS011;52876;49.394;10.892;2022-09-17T19:15:28;1.73;;;1.63;;
66093;SDS011;52876;49.394;10.892;2022-09-17T19:17:55;3.00;;;1.40;;
66093;SDS011;52876;49.394;10.892;2022-09-17T19:20:21;2.33;;;1.90;;
66093;SDS011;52876;49.394;10.892;2022-09-17T19:22:48;2.70;;;1.60;;
66093;SDS011;52876;49.394;10.892;2022-09-17T19:25:14;3.13;;;1.60;;
66093;SDS011;52876;49.394;10.892;2022-09-17T19:27:41;2.03;;;1.80;;
66093;SDS011;52876;49.394;10.892;2022-09-17T19:30:08;2.50;;;2.30;;
66093;SDS011;52876;49.394;10.892;2022-09-17T19:32:39;2.00;;;1.90;;
66093;SDS011;52876;49.394;10.892;2022-09-17T19:35:10;1.77;;;1.30;;
66093;SDS011;52876;49.394;10.892;2022-09-17T19:37:37;2.13;;;1.30;;
66093;SDS011;52876;49.394;10.892;2022-09-17T19:40:04;2.40;;;1.30;;
66093;SDS011;52876;49.394;10.892;2022-09-17T19:42:34;1.40;;;1.20;;
66093;SDS011;52876;49.394;10.892;2022-09-17T19:45:00;1.57;;;1.47;;
66093;SDS011;52876;49.394;10.892;2022-09-17T19:47:28;1.20;;;1.00;;
66093;SDS011;52876;49.394;10.892;2022-09-17T19:49:57;1.20;;;1.10;;
66093;SDS011;52876;49.394;10.892;2022-09-17T19:52:25;3.33;;;1.10;;
66093;SDS011;52876;49.394;10.892;2022-09-17T19:54:52;3.57;;;1.50;;
66093;SDS011;52876;49.394;10.892;2022-09-17T19:57:18;3.20;;;1.40;;
66093;SDS011;52876;49.394;10.892;2022-09-17T19:59:45;1.50;;;1.20;;
66093;SDS011;52876;49.394;10.892;2022-09-17T20:02:12;2.43;;;1.20;;
66093;SDS011;52876;49.394;10.892;2022-09-17T20:04:39;2.87;;;1.27;;
66093;SDS011;52876;49.394;10.892;2022-09-17T20:07:08;2.40;;;1.43;;
66093;SDS011;52876;49.394;10.892;2022-09-17T20:09:34;3.10;;;1.53;;
66093;SDS011;52876;49.394;10.892;2022-09-17T20:12:01;1.70;;;1.50;;
66093;SDS011;52876;49.394;10.892;2022-09-17T20:14:27;1.47;;;1.37;;
66093;SDS011;52876;49.394;10.892;2022-09-17T20:16:55;2.20;;;1.70;;
66093;SDS011;52876;49.394;10.892;2022-09-17T20:19:21;2.77;;;1.60;;
66093;SDS011;52876;49.394;10.892;2022-09-17T20:21:48;2.70;;;1.40;;
66093;SDS011;52876;49.394;10.892;2022-09-17T20:24:18;1.40;;;1.30;;
66093;SDS011;52876;49.394;10.892;2022-09-17T20:29:11;2.37;;;1.10;;
66093;SDS011;52876;49.394;10.892;2022-09-17T20:31:38;1.23;;;1.13;;
66093;SDS011;52876;49.394;10.892;2022-09-17T20:34:04;1.80;;;1.40;;
66093;SDS011;52876;49.394;10.892;2022-09-17T20:36:32;2.67;;;1.27;;
66093;SDS011;52876;49.394;10.892;2022-09-17T20:38:59;1.67;;;1.13;;
66093;SDS011;52876;49.394;10.892;2022-09-17T20:41:28;2.30;;;1.27;;
66093;SDS011;52876;49.394;10.892;2022-09-17T20:43:54;1.40;;;1.20;;
66093;SDS011;52876;49.394;10.892;2022-09-17T20:46:22;2.07;;;1.30;;
66093;SDS011;52876;49.394;10.892;2022-09-17T20:48:49;1.20;;;1.00;;
66093;SDS011;52876;49.394;10.892;2022-09-17T20:51:17;4.07;;;1.40;;
66093;SDS011;52876;49.394;10.892;2022-09-17T20:53:45;1.93;;;1.13;;
66093;SDS011;52876;49.394;10.892;2022-09-17T20:56:14;2.80;;;1.50;;
66093;SDS011;52876;49.394;10.892;2022-09-17T20:58:44;1.93;;;1.13;;
66093;SDS011;52876;49.394;10.892;2022-09-17T21:01:13;1.50;;;1.10;;
66093;SDS011;52876;49.394;10.892;2022-09-17T21:03:42;1.30;;;1.20;;
66093;SDS011;52876;49.394;10.892;2022-09-17T21:06:14;1.73;;;1.20;;
66093;SDS011;52876;49.394;10.892;2022-09-17T21:08:40;3.00;;;1.23;;
66093;SDS011;52876;49.394;10.892;2022-09-17T21:11:06;2.17;;;1.00;;
66093;SDS011;52876;49.394;10.892;2022-09-17T21:13:34;1.57;;;1.13;;
66093;SDS011;52876;49.394;10.892;2022-09-17T21:16:02;2.37;;;1.30;;
66093;SDS011;52876;49.394;10.892;2022-09-17T21:18:29;3.77;;;1.30;;
66093;SDS011;52876;49.394;10.892;2022-09-17T21:20:55;3.83;;;1.30;;
66093;SDS011;52876;49.394;10.892;2022-09-17T21:23:22;1.83;;;1.20;;
66093;SDS011;52876;49.394;10.892;2022-09-17T21:25:51;1.87;;;1.20;;
66093;SDS011;52876;49.394;10.892;2022-09-17T21:28:18;2.57;;;1.30;;
66093;SDS011;52876;49.394;10.892;2022-09-17T21:30:45;2.53;;;1.30;;
66093;SDS011;52876;49.394;10.892;2022-09-17T21:33:13;1.40;;;1.30;;
66093;SDS011;52876;49.394;10.892;2022-09-17T21:35:40;2.07;;;1.27;;
66093;SDS011;52876;49.394;10.892;2022-09-17T21:38:07;2.53;;;1.40;;
66093;SDS011;52876;49.394;10.892;2022-09-17T21:40:33;2.73;;;1.40;;
66093;SDS011;52876;49.394;10.892;2022-09-17T21:43:00;1.40;;;1.20;;
66093;SDS011;52876;49.394;10.892;2022-09-17T21:45:27;2.20;;;1.40;;
66093;SDS011;52876;49.394;10.892;2022-09-17T21:47:53;2.07;;;1.30;;
66093;SDS011;52876;49.394;10.892;2022-09-17T21:50:22;1.90;;;1.30;;
66093;SDS011;52876;49.394;10.892;2022-09-17T21:52:48;2.27;;;1.50;;
66093;SDS011;52876;49.394;10.892;2022-09-17T21:55:15;1.93;;;1.17;;